Greenwich, United Kingdom
Current Conditions -  °F | °C
As of 11:50 PM on Tuesday 25 Nov 2014 (Local Time) from EGLC Reporting Station
Moderate Rain Moderate Rain  
Wind Chill:   Ceiling: 2600
Heat Index:   Visibility: 6mi
Dew Point:   Wind: 10mph
Humidity: 87%   Direction: 90°E
Pressure: 29.97"   Gusts: NA
Location:  51.48°N, 0.01°W
Report Text: EGLC 252350Z AUTO 09009KT 9999 RA OVC026/// 09/07 Q1015
Loading
Personal Weather Stations






























Interactive Weather Map New forecast layout! Learn more

10-Day Weather Forecast

Advertisements
Track Severe Weather on mobile